Time;durP1;ratioP1;P1;durP2;ratioP2;P2;SDS_P1;SDS_P2;PMS_P1;PMS_P2;Temp;Humidity;BMP_temperature;BMP_pressure;BME280_temperature;BME280_humidity;BME280_pressure;Samples;Min_cycle;Max_cycle;Signal;HPM_P1;HPM_P2
2023/06/11 00:01:51;;;;;;;7.43;2.47;;;;;;;-144.73;61.81;54181.94;5054018;28;20037;-70
2023/06/11 00:04:24;;;;;;;7.95;2.85;;;;;;;-144.73;63.14;54202.44;5069059;28;20498;-69
2023/06/11 00:06:53;;;;;;;8.95;2.65;;;;;;;-144.73;62.53;54220.94;5047636;28;20037;-69
2023/06/11 00:09:19;;;;;;;11.82;2.30;;;;;;;-144.73;61.68;54194.25;5048526;28;20081;-71
2023/06/11 00:11:44;;;;;;;11.07;2.38;;;;;;;-144.73;62.66;54210.66;5069137;28;20028;-69
2023/06/11 00:14:10;;;;;;;12.48;2.45;;;;;;;-144.73;62.59;54231.19;5049961;28;20241;-71
2023/06/11 00:16:36;;;;;;;18.92;2.42;;;;;;;-144.73;63.29;54216.81;5050812;28;20043;-70
2023/06/11 00:19:03;;;;;;;8.27;2.30;;;;;;;-144.73;63.61;54227.09;5069241;28;20388;-71
2023/06/11 00:21:29;;;;;;;10.50;2.38;;;;;;;-144.73;63.33;54210.66;5068007;28;20036;-70
2023/06/11 00:23:55;;;;;;;9.98;2.30;;;;;;;-144.73;63.58;54198.34;5048342;28;20040;-70
2023/06/11 00:26:22;;;;;;;9.98;2.25;;;;;;;-144.73;64.58;54202.44;5068384;28;20034;-70
2023/06/11 00:28:47;;;;;;;36.13;2.88;;;;;;;-144.73;64.59;54202.44;5051418;28;20055;-70
2023/06/11 00:31:12;;;;;;;27.42;2.72;;;;;;;-144.73;64.26;54235.28;5050470;28;20029;-70
2023/06/11 00:33:38;;;;;;;7.68;2.20;;;;;;;-144.73;64.09;54210.66;5068531;28;20044;-70
2023/06/11 00:36:04;;;;;;;8.95;2.40;;;;;;;-144.73;64.75;54214.78;5049251;28;20017;-70
2023/06/11 00:38:30;;;;;;;9.30;2.25;;;;;;;-144.73;65.07;54233.25;5050238;28;20099;-71
2023/06/11 00:40:56;;;;;;;11.25;2.13;;;;;;;-144.73;66.47;54235.28;5068951;28;20127;-70
2023/06/11 00:43:23;;;;;;;9.45;2.17;;;;;;;-144.73;66.23;54200.41;5067755;28;20036;-70
2023/06/11 00:45:50;;;;;;;14.02;2.80;;;;;;;-144.73;67.15;54173.72;5050656;28;20024;-69
2023/06/11 00:48:21;;;;;;;13.35;2.13;;;;;;;-144.73;67.26;54202.44;5063909;28;20028;-69
2023/06/11 00:50:49;;;;;;;8.43;2.33;;;;;;;-144.73;67.28;54218.88;5051311;28;20052;-70
2023/06/11 00:53:15;;;;;;;6.20;2.03;;;;;;;-144.73;67.98;54235.28;5047999;28;20037;-69
2023/06/11 00:55:40;;;;;;;7.28;2.05;;;;;;;-144.73;67.57;54183.97;5053660;28;20028;-70
2023/06/11 00:58:13;;;;;;;11.38;2.25;;;;;;;-144.73;67.97;54212.72;5053856;28;20029;-69
2023/06/11 01:00:45;;;;;;;8.43;2.55;;;;;;;-144.73;68.94;54188.09;5049268;28;20020;-69
2023/06/11 01:03:17;;;;;;;8.88;1.85;;;;;;;-144.73;68.41;54210.66;5071488;28;20028;-69
2023/06/11 01:05:47;;;;;;;8.25;2.00;;;;;;;-144.73;67.89;54198.34;5058324;28;20081;-70
2023/06/11 01:08:13;;;;;;;9.57;2.80;;;;;;;-144.73;67.74;54218.88;5070824;28;20568;-70
2023/06/11 01:10:40;;;;;;;8.88;2.03;;;;;;;-144.73;68.54;54216.81;5072457;28;20025;-69
2023/06/11 01:13:05;;;;;;;9.40;2.47;;;;;;;-144.73;68.41;54231.19;5053866;28;20036;-69
2023/06/11 01:15:31;;;;;;;8.63;1.90;;;;;;;-144.73;69.43;54190.13;5054011;28;20020;-69
2023/06/11 01:18:08;;;;;;;13.23;2.53;;;;;;;-144.73;68.50;54194.25;5053910;28;20155;-69
2023/06/11 01:20:58;;;;;;;10.15;2.53;;;;;;;-144.73;68.90;54231.19;5072525;28;20025;-69
2023/06/11 01:23:41;;;;;;;14.60;2.75;;;;;;;-144.73;69.05;54214.78;5051613;28;20047;-69
2023/06/11 01:26:18;;;;;;;10.60;2.15;;;;;;;-144.73;70.44;54218.88;5054291;28;20130;-70
2023/06/11 01:28:51;;;;;;;7.82;2.58;;;;;;;-144.73;70.97;54212.72;5049087;28;20123;-70
2023/06/11 01:31:17;;;;;;;9.10;2.60;;;;;;;-144.73;71.70;54220.94;5053515;28;20059;-71
2023/06/11 01:33:43;;;;;;;9.73;2.38;;;;;;;-144.73;72.03;54235.28;5071779;28;20044;-70
2023/06/11 01:36:10;;;;;;;10.30;2.30;;;;;;;-144.73;71.42;54235.28;5053597;28;20025;-70
2023/06/11 01:38:41;;;;;;;6.43;2.63;;;;;;;-144.73;71.70;54216.81;5053746;28;20068;-70
2023/06/11 01:41:08;;;;;;;14.68;2.40;;;;;;;-144.73;71.83;54214.78;5071828;28;20107;-71
2023/06/11 01:43:34;;;;;;;8.23;2.42;;;;;;;-144.73;72.02;54241.44;5053299;28;20097;-71
2023/06/11 01:46:00;;;;;;;11.25;2.72;;;;;;;-144.73;74.01;54206.56;5051323;28;20017;-71
2023/06/11 01:48:26;;;;;;;5.72;2.70;;;;;;;-144.73;73.46;54196.28;5052532;28;20479;-70
2023/06/11 01:50:51;;;;;;;27.20;2.42;;;;;;;-144.73;73.22;54198.34;5050410;28;20033;-70
2023/06/11 01:53:17;;;;;;;14.82;2.15;;;;;;;-144.73;74.79;54202.44;5048488;28;20029;-71
2023/06/11 01:55:42;;;;;;;9.50;2.50;;;;;;;-144.73;74.54;54214.78;5054080;28;20051;-70
2023/06/11 01:58:08;;;;;;;37.90;3.83;;;;;;;-144.73;75.30;54214.78;5051654;28;20037;-70
2023/06/11 02:00:34;;;;;;;8.63;2.90;;;;;;;-144.73;75.63;54235.28;5053481;28;20044;-69
2023/06/11 02:03:05;;;;;;;22.70;2.67;;;;;;;-144.73;75.39;54202.44;5051419;28;20047;-68
2023/06/11 02:05:30;;;;;;;5.78;2.28;;;;;;;-144.73;76.06;54245.56;5055867;28;20025;-69
2023/06/11 02:07:56;;;;;;;6.68;2.28;;;;;;;-144.73;76.15;54243.50;5069964;28;20028;-69
2023/06/11 02:10:21;;;;;;;11.25;2.15;;;;;;;-144.73;77.15;54206.56;5071020;28;20108;-69
2023/06/11 02:12:46;;;;;;;5.03;2.00;;;;;;;-144.73;77.11;54198.34;5052634;28;20115;-69
2023/06/11 02:15:12;;;;;;;11.02;3.20;;;;;;;-144.73;77.19;54239.41;5070650;28;20032;-69
2023/06/11 02:17:37;;;;;;;9.25;2.33;;;;;;;-144.73;77.58;54229.13;5049525;28;20079;-69
2023/06/11 02:20:08;;;;;;;8.63;2.10;;;;;;;-144.73;77.42;54222.97;5052868;28;20452;-69
2023/06/11 02:22:34;;;;;;;8.18;2.25;;;;;;;-144.73;78.13;54225.03;5051912;28;20051;-69
2023/06/11 02:25:00;;;;;;;7.45;2.58;;;;;;;-144.73;77.73;54210.66;5051087;28;20021;-69
2023/06/11 02:27:25;;;;;;;8.52;2.55;;;;;;;-144.73;77.31;54214.78;5051346;28;20087;-69
2023/06/11 02:29:50;;;;;;;6.78;2.35;;;;;;;-144.73;78.92;54194.25;5071277;28;20024;-69
2023/06/11 02:32:16;;;;;;;6.95;1.90;;;;;;;-144.73;78.75;54276.34;5069678;28;20028;-69
2023/06/11 02:34:41;;;;;;;8.05;2.53;;;;;;;-144.73;80.15;54218.88;5071349;28;20024;-70
2023/06/11 02:37:07;;;;;;;13.50;2.67;;;;;;;-144.73;79.92;54204.50;5051436;28;20033;-70
2023/06/11 02:39:33;;;;;;;6.80;2.50;;;;;;;-144.73;80.39;54210.66;5052415;28;20026;-70
2023/06/11 02:41:58;;;;;;;8.73;2.60;;;;;;;-144.73;79.05;54235.28;5049627;28;20041;-70
2023/06/11 02:44:24;;;;;;;5.32;1.98;;;;;;;-144.73;80.05;54227.09;5070036;28;20471;-70
2023/06/11 02:46:49;;;;;;;7.43;2.42;;;;;;;-144.73;81.49;54190.13;5046134;28;20033;-69
2023/06/11 02:49:15;;;;;;;6.90;1.88;;;;;;;-144.73;80.74;54202.44;5052066;28;20036;-69
2023/06/11 02:51:40;;;;;;;10.93;3.22;;;;;;;-144.73;82.11;54251.72;5051903;28;20041;-70
2023/06/11 02:54:06;;;;;;;7.13;2.65;;;;;;;-144.73;83.08;54206.56;5052277;28;20052;-70
2023/06/11 02:56:32;;;;;;;19.35;2.65;;;;;;;-144.73;83.10;54243.50;5051506;28;20102;-70
2023/06/11 02:58:57;;;;;;;5.88;2.55;;;;;;;-144.73;83.93;54251.72;5049547;28;20070;-70
2023/06/11 03:01:23;;;;;;;8.48;2.20;;;;;;;-144.73;83.65;54210.66;5069037;28;20066;-70
2023/06/11 03:03:48;;;;;;;9.05;2.45;;;;;;;-144.73;84.64;54194.25;5070219;28;20028;-70
2023/06/11 03:06:13;;;;;;;7.40;2.53;;;;;;;-144.73;85.44;54231.19;5053939;28;20032;-71
2023/06/11 03:08:39;;;;;;;11.25;2.88;;;;;;;-144.73;84.28;54239.41;5054269;28;20032;-70
2023/06/11 03:11:04;;;;;;;8.05;2.45;;;;;;;-144.73;83.98;54251.72;5057081;28;20020;-70
2023/06/11 03:13:29;;;;;;;7.80;2.33;;;;;;;-144.73;85.42;54222.97;5069160;28;20119;-70
2023/06/11 03:15:55;;;;;;;10.93;2.92;;;;;;;-144.73;85.88;54247.59;5051524;28;20028;-70
2023/06/11 03:18:20;;;;;;;9.63;2.20;;;;;;;-144.73;85.16;54210.66;5068315;28;20098;-71
2023/06/11 03:20:46;;;;;;;6.13;2.30;;;;;;;-144.73;84.16;54239.41;5070097;28;20082;-70
2023/06/11 03:23:13;;;;;;;12.35;2.50;;;;;;;-144.73;84.30;54222.97;5068410;28;20044;-70
2023/06/11 03:25:38;;;;;;;13.05;2.83;;;;;;;-144.73;84.56;54280.44;5069545;28;20021;-70
2023/06/11 03:28:03;;;;;;;17.58;2.58;;;;;;;-144.73;83.81;54239.41;5068763;28;20040;-69
2023/06/11 03:30:29;;;;;;;12.80;2.45;;;;;;;-144.73;84.59;54235.28;5050954;28;20479;-70
2023/06/11 03:32:54;;;;;;;11.82;2.95;;;;;;;-144.73;84.69;54227.09;5051229;28;20063;-70
2023/06/11 03:35:20;;;;;;;8.90;2.50;;;;;;;-144.73;84.28;54214.78;5068839;28;20070;-70
2023/06/11 03:37:45;;;;;;;16.73;2.80;;;;;;;-144.73;84.19;54214.78;5068525;28;20078;-70
2023/06/11 03:40:10;;;;;;;10.60;2.20;;;;;;;-144.73;83.08;54239.41;5069408;28;20019;-70
2023/06/11 03:42:36;;;;;;;3.95;2.30;;;;;;;-144.73;82.39;54276.34;5068839;28;20029;-70
2023/06/11 03:45:01;;;;;;;21.23;3.13;;;;;;;-144.73;83.02;54235.28;5069328;28;20052;-70
2023/06/11 03:47:27;;;;;;;10.48;3.35;;;;;;;-144.73;82.79;54194.25;5050511;28;20086;-70
2023/06/11 03:49:52;;;;;;;8.88;2.70;;;;;;;-144.73;83.60;54222.97;5069125;28;20016;-70
2023/06/11 03:52:17;;;;;;;9.93;2.78;;;;;;;-144.73;82.95;54218.88;5048234;28;20055;-70
2023/06/11 03:54:43;;;;;;;9.02;2.47;;;;;;;-144.73;82.41;54229.13;5051292;28;20020;-70
2023/06/11 03:57:08;;;;;;;11.05;2.78;;;;;;;-144.73;83.09;54251.72;5067948;28;20050;-70
2023/06/11 03:59:34;;;;;;;5.85;2.22;;;;;;;-144.73;83.93;54268.13;5050351;28;20024;-70
2023/06/11 04:02:00;;;;;;;8.10;2.72;;;;;;;-144.73;84.38;54253.75;5050399;28;20036;-70
2023/06/11 04:04:25;;;;;;;11.88;2.78;;;;;;;-144.73;82.88;54247.59;5057169;28;20038;-71
2023/06/11 04:06:51;;;;;;;7.78;2.50;;;;;;;-144.73;82.50;54237.34;5061625;28;20033;-70
2023/06/11 04:09:16;;;;;;;5.03;2.60;;;;;;;-144.73;84.10;54190.13;5053727;28;20030;-70
2023/06/11 04:11:41;;;;;;;11.07;3.00;;;;;;;-144.73;83.51;54210.66;5064061;28;20047;-70
2023/06/11 04:14:07;;;;;;;9.77;2.53;;;;;;;-144.73;84.16;54245.56;5050527;28;20021;-70
2023/06/11 04:16:32;;;;;;;7.72;2.30;;;;;;;-144.73;83.40;54239.41;5049946;28;20028;-70
2023/06/11 04:18:57;;;;;;;11.85;2.70;;;;;;;-144.73;83.83;54239.41;5050919;28;20024;-70
2023/06/11 04:21:22;;;;;;;5.43;2.47;;;;;;;-144.73;84.35;54194.25;5068063;28;20070;-69
2023/06/11 04:23:48;;;;;;;7.68;3.08;;;;;;;-144.73;83.69;54227.09;5069153;28;20019;-70
2023/06/11 04:26:15;;;;;;;14.77;3.08;;;;;;;-144.73;83.57;54268.13;5065283;28;20032;-70
2023/06/11 04:28:44;;;;;;;6.90;2.42;;;;;;;-144.73;82.91;54243.50;5065503;28;20044;-70
2023/06/11 04:31:11;;;;;;;10.73;2.85;;;;;;;-144.73;83.83;54247.59;5073778;28;20054;-70
2023/06/11 04:33:37;;;;;;;10.68;2.50;;;;;;;-144.73;84.78;54259.91;5051981;28;20043;-70
2023/06/11 04:36:07;;;;;;;9.95;3.33;;;;;;;-144.73;84.84;54231.19;5075752;28;20032;-70
2023/06/11 04:38:37;;;;;;;7.22;2.60;;;;;;;-144.73;83.71;54239.41;5074792;28;20093;-70
2023/06/11 04:41:05;;;;;;;4.07;2.22;;;;;;;-144.73;83.75;54225.03;5075177;28;20016;-70
2023/06/11 04:43:33;;;;;;;11.27;2.55;;;;;;;-144.73;83.81;54235.28;5074194;28;20511;-70
2023/06/11 04:46:03;;;;;;;12.30;3.22;;;;;;;-144.73;83.48;54255.81;5075352;28;20032;-70
2023/06/11 04:48:31;;;;;;;9.07;2.72;;;;;;;-144.73;83.71;54239.41;5070539;28;20029;-70
2023/06/11 04:50:59;;;;;;;9.57;2.80;;;;;;;-144.73;83.15;54243.50;5054424;28;20017;-70
2023/06/11 04:53:27;;;;;;;7.25;2.40;;;;;;;-144.73;83.31;54231.19;5054533;28;20098;-70
2023/06/11 04:55:57;;;;;;;5.43;2.08;;;;;;;-144.73;82.86;54235.28;5075047;28;20017;-70
2023/06/11 04:58:25;;;;;;;7.95;2.67;;;;;;;-144.73;82.84;54190.13;5074503;28;20093;-70
2023/06/11 05:00:52;;;;;;;4.45;2.67;;;;;;;-144.73;82.98;54202.44;5057623;28;20024;-70
2023/06/11 05:03:18;;;;;;;13.13;2.90;;;;;;;-144.73;84.18;54268.13;5056221;28;20032;-70
2023/06/11 05:05:51;;;;;;;6.22;2.70;;;;;;;-144.73;84.53;54202.44;5075257;28;20050;-70
2023/06/11 05:08:28;;;;;;;11.52;2.88;;;;;;;-144.73;83.70;54241.44;5074187;28;20039;-69
2023/06/11 05:10:54;;;;;;;6.15;2.35;;;;;;;-144.73;82.83;54239.41;5050633;28;20027;-70
2023/06/11 05:13:25;;;;;;;5.07;2.47;;;;;;;-144.73;83.79;54245.56;5074783;28;20234;-70
2023/06/11 05:15:55;;;;;;;10.32;2.90;;;;;;;-144.73;83.38;54206.56;5053722;28;20026;-70
2023/06/11 05:18:21;;;;;;;8.10;2.45;;;;;;;-144.73;83.33;54245.56;5056351;28;20024;-70
2023/06/11 05:20:49;;;;;;;10.43;2.80;;;;;;;-144.73;83.28;54227.09;5075303;28;20111;-70
2023/06/11 05:23:15;;;;;;;15.38;2.83;;;;;;;-144.73;82.69;54243.50;5055758;28;20078;-70
2023/06/11 05:25:46;;;;;;;5.35;2.58;;;;;;;-144.73;81.51;54196.28;5057194;28;20093;-70
2023/06/11 05:28:13;;;;;;;16.65;3.45;;;;;;;-144.73;81.14;54218.88;5055860;28;20115;-69
2023/06/11 05:30:39;;;;;;;8.82;2.78;;;;;;;-144.73;81.05;54243.50;5056491;28;20072;-70
2023/06/11 05:33:05;;;;;;;7.80;2.97;;;;;;;-144.73;80.52;54241.44;5056293;28;20070;-70
2023/06/11 05:35:30;;;;;;;10.30;2.88;;;;;;;-144.73;80.19;54235.28;5056181;28;20019;-70
2023/06/11 05:37:57;;;;;;;7.78;2.50;;;;;;;-144.73;79.27;54342.03;5056169;28;20033;-71
2023/06/11 05:40:23;;;;;;;10.52;2.90;;;;;;;-144.73;79.31;54259.91;5054754;28;20028;-70
2023/06/11 05:42:49;;;;;;;8.75;3.47;;;;;;;-144.73;78.76;54218.88;5071388;28;20116;-70
2023/06/11 05:45:15;;;;;;;13.10;3.35;;;;;;;-144.73;77.90;54214.78;5053857;28;20026;-70
2023/06/11 05:47:40;;;;;;;10.77;2.65;;;;;;;-144.73;77.58;54235.28;5052468;28;20036;-70
2023/06/11 05:50:06;;;;;;;8.60;2.50;;;;;;;-144.73;76.65;54218.88;5070973;28;20028;-71
2023/06/11 05:52:32;;;;;;;9.57;2.53;;;;;;;-144.73;75.42;54227.09;5052407;28;20044;-71
2023/06/11 05:54:57;;;;;;;6.32;2.30;;;;;;;-144.73;76.72;54231.19;5050757;28;20086;-70
2023/06/11 05:57:25;;;;;;;16.33;3.38;;;;;;;-144.73;74.96;54227.09;5051373;28;20067;-71
2023/06/11 05:59:51;;;;;;;10.27;2.63;;;;;;;-144.73;74.87;54257.88;5053530;28;20020;-70
2023/06/11 06:02:18;;;;;;;12.70;3.38;;;;;;;-144.73;75.58;54280.44;5070435;28;20036;-70
2023/06/11 06:04:46;;;;;;;15.60;2.95;;;;;;;-144.73;74.45;54235.28;5047390;28;20419;-70
2023/06/11 06:07:11;;;;;;;16.92;3.35;;;;;;;-144.73;74.17;54261.97;5070825;28;20051;-70
2023/06/11 06:09:36;;;;;;;8.82;3.10;;;;;;;-144.73;73.31;54206.56;5052330;28;20486;-70
2023/06/11 06:12:02;;;;;;;9.10;3.05;;;;;;;-144.73;72.90;54227.09;5050826;28;20029;-70
2023/06/11 06:14:27;;;;;;;9.95;2.80;;;;;;;-144.73;71.48;54251.72;5065503;28;20028;-70
2023/06/11 06:16:52;;;;;;;16.55;3.22;;;;;;;-144.73;71.84;54202.44;5068480;28;20048;-70
2023/06/11 06:19:18;;;;;;;11.85;3.13;;;;;;;-144.73;70.96;54206.56;5068459;28;20028;-71
2023/06/11 06:21:43;;;;;;;6.82;2.67;;;;;;;-144.73;71.78;54235.28;5069033;28;20029;-71
2023/06/11 06:24:11;;;;;;;8.82;3.30;;;;;;;-144.73;70.97;54264.03;5055546;28;20021;-71
2023/06/11 06:26:40;;;;;;;10.02;2.92;;;;;;;-144.73;70.92;54202.44;5058106;28;20028;-70
2023/06/11 06:29:10;;;;;;;8.63;3.30;;;;;;;-144.73;70.68;54190.13;5057904;28;20035;-71
2023/06/11 06:31:38;;;;;;;10.30;3.88;;;;;;;-144.73;71.35;54206.56;5069611;28;20102;-72
2023/06/11 06:34:03;;;;;;;10.07;3.75;;;;;;;-144.73;70.43;54239.41;5069379;28;20040;-71
2023/06/11 06:36:29;;;;;;;11.30;3.30;;;;;;;-144.73;69.15;54218.88;5054366;28;20028;-70
2023/06/11 06:38:55;;;;;;;15.52;3.97;;;;;;;-144.73;69.54;54196.28;5052716;28;20038;-70
2023/06/11 06:41:20;;;;;;;8.43;2.80;;;;;;;-144.73;69.08;54231.19;5060393;28;20032;-71
2023/06/11 06:43:45;;;;;;;6.88;3.13;;;;;;;-144.73;66.88;54235.28;5044703;28;20033;-71
2023/06/11 06:46:11;;;;;;;7.90;3.15;;;;;;;-144.73;67.90;54247.59;5048740;28;20044;-70
2023/06/11 06:48:37;;;;;;;12.45;3.30;;;;;;;-144.73;68.74;54222.97;5062674;28;20040;-70
2023/06/11 06:51:02;;;;;;;11.05;4.30;;;;;;;-144.73;67.34;54214.78;5068164;28;20426;-71
2023/06/11 06:53:27;;;;;;;8.63;2.90;;;;;;;-144.73;67.05;54190.13;5063295;28;20028;-71
2023/06/11 06:55:53;;;;;;;12.68;3.20;;;;;;;-144.73;68.00;54218.88;5043493;28;20024;-71
2023/06/11 06:58:18;;;;;;;9.30;3.22;;;;;;;-144.73;65.92;54214.78;5057125;28;20116;-71
2023/06/11 07:00:45;;;;;;;11.05;3.38;;;;;;;-144.73;65.72;54243.50;5050069;28;20059;-72
2023/06/11 07:03:13;;;;;;;14.00;3.47;;;;;;;-144.73;64.70;54202.44;5062697;28;20029;-72
2023/06/11 07:05:38;;;;;;;10.48;3.90;;;;;;;-144.73;65.29;54276.34;5056108;28;20033;-72
2023/06/11 07:08:04;;;;;;;10.43;4.55;;;;;;;-144.73;63.88;54198.34;5040176;28;20078;-72
2023/06/11 07:10:30;;;;;;;10.27;2.58;;;;;;;-144.73;63.44;54202.44;5057714;28;20365;-72
2023/06/11 07:12:55;;;;;;;5.55;2.85;;;;;;;-144.73;62.92;54214.78;5037243;28;20107;-72
2023/06/11 07:15:21;;;;;;;20.92;3.03;;;;;;;-144.73;60.52;54179.88;5058708;28;20053;-72
2023/06/11 07:17:46;;;;;;;9.60;3.20;;;;;;;-144.73;60.06;54218.88;5041456;28;20041;-71
2023/06/11 07:20:12;;;;;;;14.02;3.75;;;;;;;-144.73;58.05;54181.94;5040851;28;20016;-72
2023/06/11 07:22:37;;;;;;;8.38;3.58;;;;;;;-144.73;57.15;54218.88;5057635;28;20135;-71
2023/06/11 07:25:03;;;;;;;7.95;2.90;;;;;;;-144.73;56.96;54198.34;5045012;28;20020;-73
2023/06/11 07:27:28;;;;;;;12.75;3.17;;;;;;;-144.73;56.20;54190.13;5057410;28;20049;-71
2023/06/11 07:29:54;;;;;;;14.32;2.92;;;;;;;-144.73;55.83;54181.94;5038687;28;20028;-71
2023/06/11 07:32:19;;;;;;;15.80;3.25;;;;;;;-144.73;54.10;54177.81;5046558;28;20085;-72
2023/06/11 07:34:45;;;;;;;13.40;3.38;;;;;;;-144.73;54.32;54145.00;5057686;28;20021;-72
2023/06/11 07:37:10;;;;;;;11.07;3.20;;;;;;;-144.73;54.66;54181.94;5038424;28;20398;-72
2023/06/11 07:39:35;;;;;;;8.93;3.13;;;;;;;-144.73;53.84;54153.19;5049093;28;20028;-72
2023/06/11 07:42:02;;;;;;;10.23;3.13;;;;;;;-144.73;53.69;54198.34;5043499;28;20044;-73
2023/06/11 07:44:27;;;;;;;11.52;3.08;;;;;;;-144.73;53.17;54202.44;5038912;28;20021;-72
2023/06/11 07:46:52;;;;;;;13.73;3.03;;;;;;;-144.73;52.13;54169.63;5041487;28;20033;-72
2023/06/11 07:49:18;;;;;;;12.63;3.15;;;;;;;-144.73;51.62;54149.09;5067970;28;20107;-72
2023/06/11 07:51:45;;;;;;;8.57;3.03;;;;;;;-144.73;52.28;54210.66;5066945;28;20040;-71
2023/06/11 07:54:11;;;;;;;12.13;3.13;;;;;;;-144.73;51.51;54173.72;5068656;28;20109;-72
2023/06/11 07:56:37;;;;;;;10.25;3.45;;;;;;;-144.73;52.35;54190.13;5068932;28;20043;-72
2023/06/11 07:59:02;;;;;;;10.93;3.90;;;;;;;-144.73;51.68;54169.63;5051230;28;20024;-72
2023/06/11 08:01:28;;;;;;;13.55;3.20;;;;;;;-144.73;49.92;54132.69;5054802;28;20031;-72
2023/06/11 08:03:53;;;;;;;7.70;2.97;;;;;;;-144.73;50.95;54128.56;5050414;28;20016;-73
2023/06/11 08:06:18;;;;;;;8.88;3.13;;;;;;;-144.73;49.53;54173.72;5064363;28;20021;-72
2023/06/11 08:08:43;;;;;;;6.47;2.97;;;;;;;-144.73;48.54;54145.00;5039028;28;20040;-72
2023/06/11 08:11:09;;;;;;;8.52;3.42;;;;;;;-144.73;48.03;54169.63;5063506;28;20020;-72
2023/06/11 08:13:34;;;;;;;13.60;3.25;;;;;;;-144.73;47.88;54145.00;5056157;28;20033;-74
2023/06/11 08:16:00;;;;;;;13.00;3.83;;;;;;;-144.73;47.96;54116.25;5061286;28;20024;-72
2023/06/11 08:18:26;;;;;;;8.23;3.50;;;;;;;-144.73;47.60;54149.09;5060061;28;20112;-72
2023/06/11 08:20:52;;;;;;;19.30;2.97;;;;;;;-144.73;47.98;54145.00;5062336;28;20116;-72
2023/06/11 08:23:17;;;;;;;6.93;3.40;;;;;;;-144.73;48.55;54145.00;5047268;28;20032;-72
2023/06/11 08:25:43;;;;;;;11.93;3.67;;;;;;;-144.73;47.67;54153.19;5047442;28;20025;-72
2023/06/11 08:28:08;;;;;;;14.85;2.95;;;;;;;-144.73;46.78;54155.25;5048497;28;20028;-72
2023/06/11 08:30:34;;;;;;;9.70;3.30;;;;;;;-144.73;47.11;54128.56;5051766;28;20055;-72
2023/06/11 08:32:59;;;;;;;10.60;3.70;;;;;;;-144.73;46.27;54149.09;5047728;28;20074;-71
2023/06/11 08:35:25;;;;;;;13.10;3.45;;;;;;;-144.73;46.83;54163.47;5045212;28;20388;-73
2023/06/11 08:37:51;;;;;;;10.93;2.80;;;;;;;-144.73;46.66;54149.09;5057060;28;20043;-72
2023/06/11 08:40:16;;;;;;;15.18;3.45;;;;;;;-144.73;46.26;54167.56;5062215;28;20024;-72
2023/06/11 08:42:42;;;;;;;16.10;3.53;;;;;;;-144.73;46.35;54136.78;5046170;28;20039;-72
2023/06/11 08:45:08;;;;;;;7.85;3.00;;;;;;;-144.73;45.82;54120.34;5045436;28;20040;-73
2023/06/11 08:47:39;;;;;;;8.05;3.22;;;;;;;-144.73;45.50;54161.41;5044694;28;20040;-71
2023/06/11 08:50:05;;;;;;;7.82;3.95;;;;;;;-144.73;45.45;54087.53;5043702;28;20020;-72
2023/06/11 08:52:31;;;;;;;13.70;3.58;;;;;;;-144.73;45.58;54161.41;5049834;28;20546;-72
2023/06/11 08:54:59;;;;;;;9.27;3.60;;;;;;;-144.73;44.27;54114.19;5046450;28;20056;-72
2023/06/11 08:57:25;;;;;;;9.50;3.60;;;;;;;-144.73;44.32;54132.69;5055532;28;20101;-71
2023/06/11 08:59:50;;;;;;;9.70;3.03;;;;;;;-144.73;44.47;54124.47;5059831;28;20107;-73
2023/06/11 09:02:16;;;;;;;6.95;3.15;;;;;;;-144.73;44.44;54128.56;5049312;28;20044;-73
2023/06/11 09:04:43;;;;;;;9.18;3.85;;;;;;;-144.73;44.61;54165.50;5063548;28;20016;-73
2023/06/11 09:07:09;;;;;;;9.63;3.15;;;;;;;-144.73;44.46;54128.56;5063279;28;20039;-73
2023/06/11 09:09:35;;;;;;;5.35;3.25;;;;;;;-144.73;43.94;54124.47;5043082;28;20076;-73
2023/06/11 09:12:05;;;;;;;13.07;4.10;;;;;;;-144.73;43.31;54145.00;5062219;28;20068;-73
2023/06/11 09:14:31;;;;;;;14.18;3.42;;;;;;;-144.73;43.26;54165.50;5051266;28;20422;-73
2023/06/11 09:16:56;;;;;;;8.23;3.42;;;;;;;-144.73;43.58;54167.56;5065697;28;20044;-73
2023/06/11 09:19:22;;;;;;;8.30;3.22;;;;;;;-144.73;43.13;54103.94;5051180;28;20024;-73
2023/06/11 09:21:55;;;;;;;8.40;3.53;;;;;;;-144.73;42.47;54120.34;5066514;28;20063;-71
2023/06/11 09:24:22;;;;;;;12.75;3.72;;;;;;;-144.73;41.66;54145.00;5063916;28;20016;-72
2023/06/11 09:26:52;;;;;;;13.00;3.65;;;;;;;-144.73;42.70;54145.00;5065852;28;20040;-72
2023/06/11 09:29:17;;;;;;;9.77;2.92;;;;;;;-144.73;41.86;54112.16;5049259;28;20399;-71
2023/06/11 09:31:43;;;;;;;15.45;3.83;;;;;;;-144.73;41.96;54114.19;5066307;28;20040;-72
2023/06/11 09:34:12;;;;;;;11.55;3.20;;;;;;;-144.73;41.70;54145.00;5051560;28;20020;-74
2023/06/11 09:36:37;;;;;;;13.65;3.20;;;;;;;-144.73;41.08;54116.25;5049370;28;20032;-72
2023/06/11 09:39:03;;;;;;;8.65;3.30;;;;;;;-144.73;41.60;54103.94;5067177;28;20095;-72
2023/06/11 09:41:29;;;;;;;12.00;3.72;;;;;;;-144.73;40.36;54083.41;5051661;28;20020;-72
2023/06/11 09:43:54;;;;;;;13.57;3.55;;;;;;;-144.73;40.84;54099.84;5045636;28;20078;-73
2023/06/11 09:46:21;;;;;;;13.63;3.72;;;;;;;-144.73;39.63;54128.56;5047461;28;20025;-73
2023/06/11 09:48:48;;;;;;;16.75;3.50;;;;;;;-144.73;39.17;54120.34;5064562;28;20131;-72
2023/06/11 09:51:14;;;;;;;16.77;3.58;;;;;;;-144.73;37.42;54130.63;5046493;28;20108;-72
2023/06/11 09:53:41;;;;;;;16.05;3.40;;;;;;;-144.73;37.72;54153.19;5045956;28;20052;-74
2023/06/11 09:56:06;;;;;;;13.90;3.55;;;;;;;-144.73;37.86;54124.47;5065421;28;20035;-74
2023/06/11 09:58:33;;;;;;;9.43;3.30;;;;;;;-144.73;37.88;54103.94;5046154;28;20025;-74
2023/06/11 10:01:00;;;;;;;11.50;3.35;;;;;;;-144.73;37.01;54095.72;5047794;28;20065;-74
2023/06/11 10:03:27;;;;;;;22.17;3.45;;;;;;;-144.73;36.74;54112.16;5042660;28;20064;-74
2023/06/11 10:05:53;;;;;;;16.00;3.45;;;;;;;-144.73;36.62;54120.34;5046937;28;20024;-72
2023/06/11 10:08:25;;;;;;;7.40;3.60;;;;;;;-144.73;34.71;54091.63;5046568;28;20037;-72
2023/06/11 10:10:55;;;;;;;12.48;3.20;;;;;;;-144.73;35.28;54075.22;5068009;28;20032;-72
2023/06/11 10:13:29;;;;;;;6.63;3.38;;;;;;;-144.73;35.38;54077.25;5049004;28;20037;-72
2023/06/11 10:15:55;;;;;;;6.35;3.35;;;;;;;-144.73;34.46;54091.63;5062392;28;20028;-72
2023/06/11 10:18:24;;;;;;;12.02;3.50;;;;;;;-144.73;33.55;54058.78;5052452;28;20062;-72
2023/06/11 10:20:54;;;;;;;15.52;3.35;;;;;;;-144.73;33.63;54095.72;5055633;28;20016;-73
2023/06/11 10:23:20;;;;;;;7.15;3.60;;;;;;;-144.73;32.48;54071.09;5042447;28;20037;-72
2023/06/11 10:25:54;;;;;;;13.30;4.00;;;;;;;-144.73;32.17;54091.63;5062972;28;20031;-74
2023/06/11 10:28:33;;;;;;;5.30;3.10;;;;;;;-144.73;32.78;54077.25;5046294;28;20059;-74
2023/06/11 10:30:58;;;;;;;10.93;3.13;;;;;;;-144.73;32.52;54075.22;5058302;28;20017;-74
2023/06/11 10:33:40;;;;;;;13.38;3.65;;;;;;;-144.73;32.13;54099.84;5053670;28;20040;-72
2023/06/11 10:36:06;;;;;;;16.90;4.00;;;;;;;-144.73;31.30;54108.03;5059265;28;20020;-72
2023/06/11 10:38:37;;;;;;;12.77;3.55;;;;;;;-144.73;32.10;54085.47;5061697;28;20074;-73
2023/06/11 10:41:05;;;;;;;;;;;;;;;-144.73;31.45;54079.31;5050984;28;20055;-74
2023/06/11 10:43:34;;;;;;;15.35;3.65;;;;;;;-144.73;31.13;54079.31;5051682;28;19916;-75
2023/06/11 10:46:04;;;;;;;5.35;3.08;;;;;;;-144.73;31.49;54064.94;5046094;28;20013;-73
2023/06/11 10:48:30;;;;;;;7.93;3.20;;;;;;;-144.73;31.61;54054.69;5048341;28;20040;-73
2023/06/11 10:51:00;;;;;;;7.40;3.95;;;;;;;-144.73;31.08;54054.69;5052677;28;20423;-73
2023/06/11 10:53:35;;;;;;;10.95;3.90;;;;;;;-144.73;31.34;54075.22;5064313;28;20480;-73
2023/06/11 10:56:02;;;;;;;11.55;3.90;;;;;;;-144.73;30.93;54079.31;5061785;28;20013;-73
2023/06/11 10:58:29;;;;;;;13.00;3.28;;;;;;;-144.73;31.05;54083.41;5044347;28;20101;-73
2023/06/11 11:00:54;;;;;;;8.82;3.78;;;;;;;-144.73;29.84;54038.25;5046049;28;20069;-73
2023/06/11 11:03:21;;;;;;;6.35;3.13;;;;;;;-144.73;29.42;54038.25;5062841;28;20060;-73
2023/06/11 11:05:49;;;;;;;16.13;3.33;;;;;;;-144.73;29.25;54021.84;5056778;28;20052;-73
2023/06/11 11:08:15;;;;;;;20.40;3.83;;;;;;;-144.73;29.11;54067.00;5046152;28;20033;-73
2023/06/11 11:10:41;;;;;;;7.85;3.28;;;;;;;-144.73;29.20;54025.94;5053370;28;20021;-72
2023/06/11 11:13:06;;;;;;;5.53;3.00;;;;;;;-144.73;28.20;54054.69;5065845;28;20033;-73